Soaring Guidance
Issued by NWS Reno, NV

Home | Current Version | Previous Version | Text Only | Print | Product List | Glossary On
Versions: 1 2 3 4 5 6 7 8 9 10 11 12 13 14 15 16
000
UXUS97 KREV 301347
SRGREV

SOARING FORECAST
NATIONAL WEATHER SERVICE - RENO NV
700 AM PDT TUE JUN 30 2015

THIS SOARING FORECAST IS FOR THE EASTERN SIERRA AND WESTERN NEVADA
WITH SPECIFIC INDICES FOR THE GREATER RENO AREA.

THIS FORECAST IS PREPARED DAILY BY 700 AM AND IS NOT UPDATED.

FOR CURRENT FLIGHT CONDITIONS...FORECASTS...AND ADVISORIES...ACCESS
YOUR LOCAL BRIEFING OUTLET OR FLIGHT SERVICE STATION.

*******************************************************************
FORECASTED LOCAL INDICES FOR RENO:        TODAY     YESTERDAY
FORECASTED MAX TEMP AT RENO (DEG F).....    101          91
FORECASTED TRIGGER TEMPERATURE (DEG F)..     85          80
   EXCEEDED YESTERDAY BY 955 AM PDT
FORECASTED MAXIMUM ALTITUDE (FT MSL)....  17200       18000
FORECASTED SOARING INDEX (FPM)..........   1116        1143
FORECASTED K-INDEX.........VALID 18Z....     28          28
FORECASTED K-INDEX.........VALID 00Z....     30          36
FORECASTED LIFTED INDEX....VALID 18Z....      4           3
FORECASTED LIFTED INDEX....VALID 00Z....      2           0

AFTERNOON WINDS ALOFT FORECAST
MSL (FT) WIND/TEMP
9000  2807/+21
10000 2806/+18
12000 2805/+12
14000 2307/+06
16000 2209/+00
18000 2115/-05
24000 2017/-17
30000 2023/-32
34000 1925/-43
39000 1830/-56

SLIDE MOUNTAIN DATA:
     DATE       TIME     TEMP  DEWPT   RH         WIND (MPH)
                        (F)   (F)           | DIR  SPEED GUST
2015-06-30    05:50      60    41     48    | 082    9   11
2015-06-30    05:30      60    41     48    | 090    8   11
2015-06-30    05:20      60    41     49    | 076    8   10
2015-06-30    05:00      60    41     49    | 077    8   10

RENO TAF FORECAST:
KRNO 301120Z 3012/0112 VRB04KT P6SM SCT200
     FM302300 25009G16KT P6SM SCT080 SCT120 BKN200
     FM010500 VRB04KT P6SM SCT120 SCT200

CARSON CITY TAF FORECAST:
KCXP 301120Z 3012/0112 VRB03KT P6SM SCT200
     FM302300 26009G16KT P6SM VCTS SCT080CB SCT120 BKN200
     FM010200 29008KT P6SM SCT120 BKN200
     FM010500 VRB04KT P6SM SCT120 SCT200

OUTLOOK FOR THE RENO-CARSON CITY-MINDEN AREA:
.WEDNESDAY...PARTLY CLOUDY. SLIGHT CHANCE OF SHOWERS AND
THUNDERSTORMS IN THE AFTERNOON. HIGHS 99 TO 104. LIGHT WINDS
BECOMING NORTH AROUND 10 MPH IN THE AFTERNOON.

SUNRISE AND SUNSET
JUNE 30 2015..........SUNRISE   535 AM PDT   SUNSET   830 PM PDT
JULY  1 2015..........SUNRISE   536 AM PDT   SUNSET   830 PM PDT


USA.gov is the U.S. government's official web portal to all federal, state and local government web resources and services.